sensor_id;sensor_type;location;lat;lon;timestamp;temperature;humidity
17740;DHT22;8990;33.226;-97.150;2023-08-20T00:02:02;40.30;91.90
17740;DHT22;8990;33.226;-97.150;2023-08-20T00:04:36;40.30;91.90
17740;DHT22;8990;33.226;-97.150;2023-08-20T00:07:05;40.20;92.10
17740;DHT22;8990;33.226;-97.150;2023-08-20T00:09:34;40.10;92.00
17740;DHT22;8990;33.226;-97.150;2023-08-20T00:12:04;40.10;92.10
17740;DHT22;8990;33.226;-97.150;2023-08-20T00:14:52;40.10;91.90
17740;DHT22;8990;33.226;-97.150;2023-08-20T00:17:23;39.90;91.90
17740;DHT22;8990;33.226;-97.150;2023-08-20T00:19:54;39.90;91.90
17740;DHT22;8990;33.226;-97.150;2023-08-20T00:22:24;39.90;92.00
17740;DHT22;8990;33.226;-97.150;2023-08-20T00:24:54;39.80;92.10
17740;DHT22;8990;33.226;-97.150;2023-08-20T00:27:23;39.80;92.10
17740;DHT22;8990;33.226;-97.150;2023-08-20T00:29:55;39.80;92.40
17740;DHT22;8990;33.226;-97.150;2023-08-20T00:32:24;39.70;92.10
17740;DHT22;8990;33.226;-97.150;2023-08-20T00:34:53;39.70;92.10
17740;DHT22;8990;33.226;-97.150;2023-08-20T00:37:23;39.70;92.20
17740;DHT22;8990;33.226;-97.150;2023-08-20T00:39:51;39.70;92.40
17740;DHT22;8990;33.226;-97.150;2023-08-20T00:42:20;39.60;92.40
17740;DHT22;8990;33.226;-97.150;2023-08-20T00:44:49;39.50;92.40
17740;DHT22;8990;33.226;-97.150;2023-08-20T00:47:20;39.60;92.50
17740;DHT22;8990;33.226;-97.150;2023-08-20T00:49:49;39.50;92.60
17740;DHT22;8990;33.226;-97.150;2023-08-20T00:52:19;39.60;92.60
17740;DHT22;8990;33.226;-97.150;2023-08-20T00:54:51;39.50;92.70
17740;DHT22;8990;33.226;-97.150;2023-08-20T00:57:20;39.50;92.80
17740;DHT22;8990;33.226;-97.150;2023-08-20T00:59:49;39.30;92.90
17740;DHT22;8990;33.226;-97.150;2023-08-20T01:02:22;39.30;93.30
17740;DHT22;8990;33.226;-97.150;2023-08-20T01:04:51;39.10;94.10
17740;DHT22;8990;33.226;-97.150;2023-08-20T01:07:27;39.00;93.60
17740;DHT22;8990;33.226;-97.150;2023-08-20T01:10:04;39.00;93.50
17740;DHT22;8990;33.226;-97.150;2023-08-20T01:12:36;38.90;93.50
17740;DHT22;8990;33.226;-97.150;2023-08-20T01:15:06;38.70;93.30
17740;DHT22;8990;33.226;-97.150;2023-08-20T01:17:42;38.60;93.30
17740;DHT22;8990;33.226;-97.150;2023-08-20T01:20:13;38.50;93.40
17740;DHT22;8990;33.226;-97.150;2023-08-20T01:23:14;38.50;93.50
17740;DHT22;8990;33.226;-97.150;2023-08-20T01:26:00;38.40;93.70
17740;DHT22;8990;33.226;-97.150;2023-08-20T01:28:37;38.30;93.90
17740;DHT22;8990;33.226;-97.150;2023-08-20T01:31:08;38.20;94.00
17740;DHT22;8990;33.226;-97.150;2023-08-20T01:33:37;38.20;94.10
17740;DHT22;8990;33.226;-97.150;2023-08-20T01:36:08;38.10;94.40
17740;DHT22;8990;33.226;-97.150;2023-08-20T01:38:38;38.20;94.60
17740;DHT22;8990;33.226;-97.150;2023-08-20T01:41:06;38.10;94.70
17740;DHT22;8990;33.226;-97.150;2023-08-20T01:43:37;38.20;95.10
17740;DHT22;8990;33.226;-97.150;2023-08-20T01:46:06;38.10;95.10
17740;DHT22;8990;33.226;-97.150;2023-08-20T01:48:36;38.10;95.50
17740;DHT22;8990;33.226;-97.150;2023-08-20T01:51:05;38.00;95.70
17740;DHT22;8990;33.226;-97.150;2023-08-20T01:53:34;38.10;97.60
17740;DHT22;8990;33.226;-97.150;2023-08-20T01:56:03;38.00;95.70
17740;DHT22;8990;33.226;-97.150;2023-08-20T01:58:33;37.90;95.50
17740;DHT22;8990;33.226;-97.150;2023-08-20T02:01:03;37.90;95.60
17740;DHT22;8990;33.226;-97.150;2023-08-20T02:03:32;37.90;95.70
17740;DHT22;8990;33.226;-97.150;2023-08-20T02:06:01;37.90;95.90
17740;DHT22;8990;33.226;-97.150;2023-08-20T02:08:30;37.90;96.60
17740;DHT22;8990;33.226;-97.150;2023-08-20T02:11:02;37.80;96.10
17740;DHT22;8990;33.226;-97.150;2023-08-20T02:13:32;37.80;96.50
17740;DHT22;8990;33.226;-97.150;2023-08-20T02:16:04;37.80;96.40
17740;DHT22;8990;33.226;-97.150;2023-08-20T02:18:33;37.60;96.20
17740;DHT22;8990;33.226;-97.150;2023-08-20T02:21:02;37.50;96.20
17740;DHT22;8990;33.226;-97.150;2023-08-20T02:23:31;37.50;96.30
17740;DHT22;8990;33.226;-97.150;2023-08-20T02:26:00;37.30;96.40
17740;DHT22;8990;33.226;-97.150;2023-08-20T02:28:30;37.30;96.50
17740;DHT22;8990;33.226;-97.150;2023-08-20T02:31:05;37.20;96.50
17740;DHT22;8990;33.226;-97.150;2023-08-20T02:33:34;37.20;97.10
17740;DHT22;8990;33.226;-97.150;2023-08-20T02:36:04;37.10;98.10
17740;DHT22;8990;33.226;-97.150;2023-08-20T02:38:33;37.10;99.40
17740;DHT22;8990;33.226;-97.150;2023-08-20T02:41:02;37.10;99.90
17740;DHT22;8990;33.226;-97.150;2023-08-20T02:43:31;36.90;98.40
17740;DHT22;8990;33.226;-97.150;2023-08-20T02:46:01;36.90;97.30
17740;DHT22;8990;33.226;-97.150;2023-08-20T02:48:32;36.80;97.00
17740;DHT22;8990;33.226;-97.150;2023-08-20T02:51:01;36.80;97.30
17740;DHT22;8990;33.226;-97.150;2023-08-20T02:53:30;36.70;98.70
17740;DHT22;8990;33.226;-97.150;2023-08-20T02:55:59;36.60;97.50
17740;DHT22;8990;33.226;-97.150;2023-08-20T02:58:28;36.60;97.40
17740;DHT22;8990;33.226;-97.150;2023-08-20T03:00:57;36.60;97.40
17740;DHT22;8990;33.226;-97.150;2023-08-20T03:03:26;36.60;97.30
17740;DHT22;8990;33.226;-97.150;2023-08-20T03:05:57;36.50;97.10
17740;DHT22;8990;33.226;-97.150;2023-08-20T03:08:26;36.40;97.20
17740;DHT22;8990;33.226;-97.150;2023-08-20T03:10:55;36.30;97.20
17740;DHT22;8990;33.226;-97.150;2023-08-20T03:13:24;36.30;97.40
17740;DHT22;8990;33.226;-97.150;2023-08-20T03:15:53;36.30;97.50
17740;DHT22;8990;33.226;-97.150;2023-08-20T03:18:22;36.20;97.70
17740;DHT22;8990;33.226;-97.150;2023-08-20T03:20:51;36.30;98.60
17740;DHT22;8990;33.226;-97.150;2023-08-20T03:23:21;36.30;98.20
17740;DHT22;8990;33.226;-97.150;2023-08-20T03:25:51;36.40;98.40
17740;DHT22;8990;33.226;-97.150;2023-08-20T03:28:21;36.50;99.90
17740;DHT22;8990;33.226;-97.150;2023-08-20T03:30:53;36.30;97.50
17740;DHT22;8990;33.226;-97.150;2023-08-20T03:33:27;36.20;97.50
17740;DHT22;8990;33.226;-97.150;2023-08-20T03:35:55;36.10;97.50
17740;DHT22;8990;33.226;-97.150;2023-08-20T03:38:26;36.00;97.60
17740;DHT22;8990;33.226;-97.150;2023-08-20T03:40:55;35.90;97.70
17740;DHT22;8990;33.226;-97.150;2023-08-20T03:43:26;35.90;98.20
17740;DHT22;8990;33.226;-97.150;2023-08-20T03:45:55;35.70;98.40
17740;DHT22;8990;33.226;-97.150;2023-08-20T03:48:25;35.70;98.50
17740;DHT22;8990;33.226;-97.150;2023-08-20T03:50:54;35.70;98.50
17740;DHT22;8990;33.226;-97.150;2023-08-20T03:53:23;35.70;98.20
17740;DHT22;8990;33.226;-97.150;2023-08-20T03:55:53;35.70;98.10
17740;DHT22;8990;33.226;-97.150;2023-08-20T03:58:22;35.70;98.10
17740;DHT22;8990;33.226;-97.150;2023-08-20T04:00:51;35.70;98.10
17740;DHT22;8990;33.226;-97.150;2023-08-20T04:03:20;35.60;98.10
17740;DHT22;8990;33.226;-97.150;2023-08-20T04:05:50;35.60;98.10
17740;DHT22;8990;33.226;-97.150;2023-08-20T04:08:19;35.50;98.20
17740;DHT22;8990;33.226;-97.150;2023-08-20T04:10:47;35.50;98.50
17740;DHT22;8990;33.226;-97.150;2023-08-20T04:13:18;35.50;98.30
17740;DHT22;8990;33.226;-97.150;2023-08-20T04:15:47;35.60;98.40
17740;DHT22;8990;33.226;-97.150;2023-08-20T04:18:15;35.60;98.40
17740;DHT22;8990;33.226;-97.150;2023-08-20T04:20:44;35.60;98.40
17740;DHT22;8990;33.226;-97.150;2023-08-20T04:23:13;35.60;98.50
17740;DHT22;8990;33.226;-97.150;2023-08-20T04:25:42;35.50;98.70
17740;DHT22;8990;33.226;-97.150;2023-08-20T04:28:14;35.40;98.80
17740;DHT22;8990;33.226;-97.150;2023-08-20T04:30:45;35.30;98.80
17740;DHT22;8990;33.226;-97.150;2023-08-20T04:33:15;35.20;99.10
17740;DHT22;8990;33.226;-97.150;2023-08-20T04:35:48;35.10;99.20
17740;DHT22;8990;33.226;-97.150;2023-08-20T04:38:20;34.90;99.30
17740;DHT22;8990;33.226;-97.150;2023-08-20T04:40:53;34.80;99.50
17740;DHT22;8990;33.226;-97.150;2023-08-20T04:43:22;34.60;99.80
17740;DHT22;8990;33.226;-97.150;2023-08-20T04:45:52;34.50;99.90
17740;DHT22;8990;33.226;-97.150;2023-08-20T04:48:23;34.50;99.90
17740;DHT22;8990;33.226;-97.150;2023-08-20T04:50:51;34.30;99.90
17740;DHT22;8990;33.226;-97.150;2023-08-20T04:53:20;34.30;99.90
17740;DHT22;8990;33.226;-97.150;2023-08-20T04:55:49;34.30;99.90
17740;DHT22;8990;33.226;-97.150;2023-08-20T04:58:18;34.20;99.90
17740;DHT22;8990;33.226;-97.150;2023-08-20T05:00:47;34.20;99.90
17740;DHT22;8990;33.226;-97.150;2023-08-20T05:03:17;34.20;99.90
17740;DHT22;8990;33.226;-97.150;2023-08-20T05:05:49;34.20;99.90
17740;DHT22;8990;33.226;-97.150;2023-08-20T05:08:18;34.10;99.90
17740;DHT22;8990;33.226;-97.150;2023-08-20T05:10:47;34.20;99.90
17740;DHT22;8990;33.226;-97.150;2023-08-20T05:13:18;34.20;99.90
17740;DHT22;8990;33.226;-97.150;2023-08-20T05:15:50;34.20;99.90
17740;DHT22;8990;33.226;-97.150;2023-08-20T05:18:20;34.20;99.90
17740;DHT22;8990;33.226;-97.150;2023-08-20T05:20:49;34.10;99.90
17740;DHT22;8990;33.226;-97.150;2023-08-20T05:23:18;34.00;99.90
17740;DHT22;8990;33.226;-97.150;2023-08-20T05:25:47;33.80;99.90
17740;DHT22;8990;33.226;-97.150;2023-08-20T05:28:16;33.70;99.90
17740;DHT22;8990;33.226;-97.150;2023-08-20T05:30:54;33.70;99.90
17740;DHT22;8990;33.226;-97.150;2023-08-20T05:33:25;33.50;99.90
17740;DHT22;8990;33.226;-97.150;2023-08-20T05:35:55;33.50;99.90
17740;DHT22;8990;33.226;-97.150;2023-08-20T05:38:25;33.50;99.90
17740;DHT22;8990;33.226;-97.150;2023-08-20T05:40:54;33.30;99.90
17740;DHT22;8990;33.226;-97.150;2023-08-20T05:43:22;33.30;99.90
17740;DHT22;8990;33.226;-97.150;2023-08-20T05:45:51;33.10;99.90
17740;DHT22;8990;33.226;-97.150;2023-08-20T05:48:23;33.10;99.90
17740;DHT22;8990;33.226;-97.150;2023-08-20T05:50:53;32.90;99.90
17740;DHT22;8990;33.226;-97.150;2023-08-20T05:53:23;32.70;99.90
17740;DHT22;8990;33.226;-97.150;2023-08-20T05:55:52;32.50;99.90
17740;DHT22;8990;33.226;-97.150;2023-08-20T05:58:21;32.20;99.90
17740;DHT22;8990;33.226;-97.150;2023-08-20T06:00:50;32.10;99.90
17740;DHT22;8990;33.226;-97.150;2023-08-20T06:03:19;32.20;99.90
17740;DHT22;8990;33.226;-97.150;2023-08-20T06:05:48;32.10;99.90
17740;DHT22;8990;33.226;-97.150;2023-08-20T06:08:19;32.10;99.90
17740;DHT22;8990;33.226;-97.150;2023-08-20T06:10:47;32.20;99.90
17740;DHT22;8990;33.226;-97.150;2023-08-20T06:13:16;32.40;99.90
17740;DHT22;8990;33.226;-97.150;2023-08-20T06:15:45;32.60;99.90
17740;DHT22;8990;33.226;-97.150;2023-08-20T06:18:14;32.80;99.90
17740;DHT22;8990;33.226;-97.150;2023-08-20T06:20:43;33.00;99.90
17740;DHT22;8990;33.226;-97.150;2023-08-20T06:23:11;33.00;99.90
17740;DHT22;8990;33.226;-97.150;2023-08-20T06:25:42;33.10;99.90
17740;DHT22;8990;33.226;-97.150;2023-08-20T06:28:11;33.20;99.90
17740;DHT22;8990;33.226;-97.150;2023-08-20T06:30:40;33.20;99.90
17740;DHT22;8990;33.226;-97.150;2023-08-20T06:33:09;33.10;99.90
17740;DHT22;8990;33.226;-97.150;2023-08-20T06:35:37;33.20;99.90
17740;DHT22;8990;33.226;-97.150;2023-08-20T06:38:06;33.20;99.90
17740;DHT22;8990;33.226;-97.150;2023-08-20T06:40:35;33.20;99.90
17740;DHT22;8990;33.226;-97.150;2023-08-20T06:43:06;33.20;99.90
17740;DHT22;8990;33.226;-97.150;2023-08-20T06:45:36;33.20;99.90
17740;DHT22;8990;33.226;-97.150;2023-08-20T06:48:05;33.20;99.90
17740;DHT22;8990;33.226;-97.150;2023-08-20T06:50:34;33.10;99.90
17740;DHT22;8990;33.226;-97.150;2023-08-20T06:53:03;32.90;99.90
17740;DHT22;8990;33.226;-97.150;2023-08-20T06:55:32;32.60;99.90
17740;DHT22;8990;33.226;-97.150;2023-08-20T06:58:02;32.40;99.90
17740;DHT22;8990;33.226;-97.150;2023-08-20T07:00:33;32.30;99.90
17740;DHT22;8990;33.226;-97.150;2023-08-20T07:03:02;32.40;99.90
17740;DHT22;8990;33.226;-97.150;2023-08-20T07:05:31;32.20;99.90
17740;DHT22;8990;33.226;-97.150;2023-08-20T07:08:00;32.00;99.90
17740;DHT22;8990;33.226;-97.150;2023-08-20T07:10:29;32.00;99.90
17740;DHT22;8990;33.226;-97.150;2023-08-20T07:12:58;32.00;99.90
17740;DHT22;8990;33.226;-97.150;2023-08-20T07:15:27;31.90;99.90
17740;DHT22;8990;33.226;-97.150;2023-08-20T07:17:57;31.90;99.90
17740;DHT22;8990;33.226;-97.150;2023-08-20T07:20:26;31.80;99.90
17740;DHT22;8990;33.226;-97.150;2023-08-20T07:22:55;31.70;99.90
17740;DHT22;8990;33.226;-97.150;2023-08-20T07:25:24;31.80;99.90
17740;DHT22;8990;33.226;-97.150;2023-08-20T07:27:53;31.70;99.90
17740;DHT22;8990;33.226;-97.150;2023-08-20T07:30:26;31.70;99.90
17740;DHT22;8990;33.226;-97.150;2023-08-20T07:32:57;31.70;99.90
17740;DHT22;8990;33.226;-97.150;2023-08-20T07:35:25;31.80;99.90
17740;DHT22;8990;33.226;-97.150;2023-08-20T07:37:54;31.70;99.90
17740;DHT22;8990;33.226;-97.150;2023-08-20T07:40:23;31.70;99.90
17740;DHT22;8990;33.226;-97.150;2023-08-20T07:42:53;31.70;99.90
17740;DHT22;8990;33.226;-97.150;2023-08-20T07:45:23;31.70;99.90
17740;DHT22;8990;33.226;-97.150;2023-08-20T07:47:52;31.70;99.90
17740;DHT22;8990;33.226;-97.150;2023-08-20T07:50:23;31.60;99.90
17740;DHT22;8990;33.226;-97.150;2023-08-20T07:52:51;31.50;99.90
17740;DHT22;8990;33.226;-97.150;2023-08-20T07:55:20;31.40;99.90
17740;DHT22;8990;33.226;-97.150;2023-08-20T07:57:49;31.20;99.90
17740;DHT22;8990;33.226;-97.150;2023-08-20T08:00:19;31.20;99.90
17740;DHT22;8990;33.226;-97.150;2023-08-20T08:02:48;31.10;99.90
17740;DHT22;8990;33.226;-97.150;2023-08-20T08:05:17;31.10;99.90
17740;DHT22;8990;33.226;-97.150;2023-08-20T08:07:48;31.00;99.90
17740;DHT22;8990;33.226;-97.150;2023-08-20T08:10:17;31.00;99.90
17740;DHT22;8990;33.226;-97.150;2023-08-20T08:12:46;30.90;99.90
17740;DHT22;8990;33.226;-97.150;2023-08-20T08:15:15;30.90;99.90
17740;DHT22;8990;33.226;-97.150;2023-08-20T08:17:44;30.90;99.90
17740;DHT22;8990;33.226;-97.150;2023-08-20T08:20:13;30.90;99.90
17740;DHT22;8990;33.226;-97.150;2023-08-20T08:22:42;30.90;99.90
17740;DHT22;8990;33.226;-97.150;2023-08-20T08:25:12;30.80;99.90
17740;DHT22;8990;33.226;-97.150;2023-08-20T08:27:41;30.70;99.90
17740;DHT22;8990;33.226;-97.150;2023-08-20T08:30:11;30.60;99.90
17740;DHT22;8990;33.226;-97.150;2023-08-20T08:32:39;30.50;99.90
17740;DHT22;8990;33.226;-97.150;2023-08-20T08:35:08;30.40;99.90
17740;DHT22;8990;33.226;-97.150;2023-08-20T08:37:37;30.40;99.90
17740;DHT22;8990;33.226;-97.150;2023-08-20T08:40:07;30.40;99.90
17740;DHT22;8990;33.226;-97.150;2023-08-20T08:42:41;30.30;99.90
17740;DHT22;8990;33.226;-97.150;2023-08-20T08:45:10;30.40;99.90
17740;DHT22;8990;33.226;-97.150;2023-08-20T08:47:40;30.40;99.90
17740;DHT22;8990;33.226;-97.150;2023-08-20T08:50:09;30.30;99.90
17740;DHT22;8990;33.226;-97.150;2023-08-20T08:52:40;30.30;99.90
17740;DHT22;8990;33.226;-97.150;2023-08-20T08:55:09;30.30;99.90
17740;DHT22;8990;33.226;-97.150;2023-08-20T08:57:40;30.30;99.90
17740;DHT22;8990;33.226;-97.150;2023-08-20T09:00:11;30.30;99.90
17740;DHT22;8990;33.226;-97.150;2023-08-20T09:02:40;30.30;99.90
17740;DHT22;8990;33.226;-97.150;2023-08-20T09:05:09;30.20;99.90
17740;DHT22;8990;33.226;-97.150;2023-08-20T09:07:42;30.10;99.90
17740;DHT22;8990;33.226;-97.150;2023-08-20T09:10:12;30.00;99.90
17740;DHT22;8990;33.226;-97.150;2023-08-20T09:12:43;30.00;99.90
17740;DHT22;8990;33.226;-97.150;2023-08-20T09:15:12;30.00;99.90
17740;DHT22;8990;33.226;-97.150;2023-08-20T09:17:41;29.90;99.90
17740;DHT22;8990;33.226;-97.150;2023-08-20T09:20:11;29.90;99.90
17740;DHT22;8990;33.226;-97.150;2023-08-20T09:22:49;29.90;99.90
17740;DHT22;8990;33.226;-97.150;2023-08-20T09:25:17;29.90;99.90
17740;DHT22;8990;33.226;-97.150;2023-08-20T09:27:48;29.90;99.90
17740;DHT22;8990;33.226;-97.150;2023-08-20T09:30:19;29.90;99.90
17740;DHT22;8990;33.226;-97.150;2023-08-20T09:33:03;29.90;99.90
17740;DHT22;8990;33.226;-97.150;2023-08-20T09:35:33;29.80;99.90
17740;DHT22;8990;33.226;-97.150;2023-08-20T09:38:03;29.80;99.90
17740;DHT22;8990;33.226;-97.150;2023-08-20T09:40:32;29.80;99.90
17740;DHT22;8990;33.226;-97.150;2023-08-20T09:43:03;29.70;99.90
17740;DHT22;8990;33.226;-97.150;2023-08-20T09:45:35;29.90;99.90
17740;DHT22;8990;33.226;-97.150;2023-08-20T09:48:07;29.70;99.90
17740;DHT22;8990;33.226;-97.150;2023-08-20T09:50:38;29.60;99.90
17740;DHT22;8990;33.226;-97.150;2023-08-20T09:53:18;29.60;99.90
17740;DHT22;8990;33.226;-97.150;2023-08-20T09:55:51;29.60;99.90
17740;DHT22;8990;33.226;-97.150;2023-08-20T09:58:23;29.60;99.90
17740;DHT22;8990;33.226;-97.150;2023-08-20T10:00:52;29.50;99.90
17740;DHT22;8990;33.226;-97.150;2023-08-20T10:03:22;29.50;99.90
17740;DHT22;8990;33.226;-97.150;2023-08-20T10:05:51;29.50;99.90
17740;DHT22;8990;33.226;-97.150;2023-08-20T10:08:21;29.50;99.90
17740;DHT22;8990;33.226;-97.150;2023-08-20T10:10:50;29.50;99.90
17740;DHT22;8990;33.226;-97.150;2023-08-20T10:13:19;29.60;99.90
17740;DHT22;8990;33.226;-97.150;2023-08-20T10:15:50;29.50;99.90
17740;DHT22;8990;33.226;-97.150;2023-08-20T10:18:22;29.50;99.90
17740;DHT22;8990;33.226;-97.150;2023-08-20T10:20:51;29.40;99.90
17740;DHT22;8990;33.226;-97.150;2023-08-20T10:23:21;29.50;99.90
17740;DHT22;8990;33.226;-97.150;2023-08-20T10:25:52;29.50;99.90
17740;DHT22;8990;33.226;-97.150;2023-08-20T10:28:22;29.40;99.90
17740;DHT22;8990;33.226;-97.150;2023-08-20T10:31:09;29.40;99.90
17740;DHT22;8990;33.226;-97.150;2023-08-20T10:33:53;29.40;99.90
17740;DHT22;8990;33.226;-97.150;2023-08-20T10:36:24;29.40;99.90
17740;DHT22;8990;33.226;-97.150;2023-08-20T10:38:55;29.40;99.90
17740;DHT22;8990;33.226;-97.150;2023-08-20T10:41:28;29.40;99.90
17740;DHT22;8990;33.226;-97.150;2023-08-20T10:43:58;29.40;99.90
17740;DHT22;8990;33.226;-97.150;2023-08-20T10:46:29;29.40;99.90
17740;DHT22;8990;33.226;-97.150;2023-08-20T10:48:59;29.40;99.90
17740;DHT22;8990;33.226;-97.150;2023-08-20T10:51:32;29.40;99.90
17740;DHT22;8990;33.226;-97.150;2023-08-20T10:54:06;29.50;99.90
17740;DHT22;8990;33.226;-97.150;2023-08-20T10:56:41;29.60;99.90
17740;DHT22;8990;33.226;-97.150;2023-08-20T10:59:13;29.50;99.90
17740;DHT22;8990;33.226;-97.150;2023-08-20T11:01:45;29.40;99.90
17740;DHT22;8990;33.226;-97.150;2023-08-20T11:04:18;29.40;99.90
17740;DHT22;8990;33.226;-97.150;2023-08-20T11:06:52;29.40;99.90
17740;DHT22;8990;33.226;-97.150;2023-08-20T11:09:22;29.20;99.90
17740;DHT22;8990;33.226;-97.150;2023-08-20T11:11:51;29.00;99.90
17740;DHT22;8990;33.226;-97.150;2023-08-20T11:14:20;28.90;99.90
17740;DHT22;8990;33.226;-97.150;2023-08-20T11:16:51;28.80;99.90
17740;DHT22;8990;33.226;-97.150;2023-08-20T11:19:21;28.80;99.90
17740;DHT22;8990;33.226;-97.150;2023-08-20T11:21:50;28.70;99.90
17740;DHT22;8990;33.226;-97.150;2023-08-20T11:24:19;28.70;99.90
17740;DHT22;8990;33.226;-97.150;2023-08-20T11:26:48;28.70;99.90
17740;DHT22;8990;33.226;-97.150;2023-08-20T11:29:18;28.70;99.90
17740;DHT22;8990;33.226;-97.150;2023-08-20T11:31:48;28.70;99.90
17740;DHT22;8990;33.226;-97.150;2023-08-20T11:34:19;28.70;99.90
17740;DHT22;8990;33.226;-97.150;2023-08-20T11:36:48;28.60;99.90
17740;DHT22;8990;33.226;-97.150;2023-08-20T11:39:18;28.60;99.90
17740;DHT22;8990;33.226;-97.150;2023-08-20T11:41:48;28.60;99.90
17740;DHT22;8990;33.226;-97.150;2023-08-20T11:44:20;28.60;99.90
17740;DHT22;8990;33.226;-97.150;2023-08-20T11:46:49;28.70;99.90
17740;DHT22;8990;33.226;-97.150;2023-08-20T11:49:27;28.60;99.90
17740;DHT22;8990;33.226;-97.150;2023-08-20T11:51:57;28.50;99.90
17740;DHT22;8990;33.226;-97.150;2023-08-20T11:54:27;28.30;99.90
17740;DHT22;8990;33.226;-97.150;2023-08-20T11:57:02;28.30;99.90
17740;DHT22;8990;33.226;-97.150;2023-08-20T11:59:32;28.20;99.90
17740;DHT22;8990;33.226;-97.150;2023-08-20T12:02:02;28.10;99.90
17740;DHT22;8990;33.226;-97.150;2023-08-20T12:04:33;28.10;99.90
17740;DHT22;8990;33.226;-97.150;2023-08-20T12:07:08;28.10;99.90
17740;DHT22;8990;33.226;-97.150;2023-08-20T12:09:37;28.00;99.90
17740;DHT22;8990;33.226;-97.150;2023-08-20T12:12:07;27.90;99.90
17740;DHT22;8990;33.226;-97.150;2023-08-20T12:14:36;27.70;99.90
17740;DHT22;8990;33.226;-97.150;2023-08-20T12:17:06;27.90;99.90
17740;DHT22;8990;33.226;-97.150;2023-08-20T12:19:37;27.80;99.90
17740;DHT22;8990;33.226;-97.150;2023-08-20T12:22:06;27.90;99.90
17740;DHT22;8990;33.226;-97.150;2023-08-20T12:24:35;27.90;99.90
17740;DHT22;8990;33.226;-97.150;2023-08-20T12:27:04;28.10;99.90
17740;DHT22;8990;33.226;-97.150;2023-08-20T12:29:33;28.10;99.90
17740;DHT22;8990;33.226;-97.150;2023-08-20T12:32:02;28.10;99.90
17740;DHT22;8990;33.226;-97.150;2023-08-20T12:34:34;28.20;99.90
17740;DHT22;8990;33.226;-97.150;2023-08-20T12:37:04;28.20;99.90
17740;DHT22;8990;33.226;-97.150;2023-08-20T12:39:33;28.20;99.90
17740;DHT22;8990;33.226;-97.150;2023-08-20T12:42:02;28.30;99.90
17740;DHT22;8990;33.226;-97.150;2023-08-20T12:44:31;28.40;99.90
17740;DHT22;8990;33.226;-97.150;2023-08-20T12:47:00;28.40;99.90
17740;DHT22;8990;33.226;-97.150;2023-08-20T12:49:29;28.40;99.90
17740;DHT22;8990;33.226;-97.150;2023-08-20T12:51:57;28.50;99.90
17740;DHT22;8990;33.226;-97.150;2023-08-20T12:54:29;28.60;99.90
17740;DHT22;8990;33.226;-97.150;2023-08-20T12:56:58;28.70;99.90
17740;DHT22;8990;33.226;-97.150;2023-08-20T12:59:27;28.80;99.90
17740;DHT22;8990;33.226;-97.150;2023-08-20T13:01:55;28.90;99.90
17740;DHT22;8990;33.226;-97.150;2023-08-20T13:04:25;29.00;99.90
17740;DHT22;8990;33.226;-97.150;2023-08-20T13:06:55;29.20;99.90
17740;DHT22;8990;33.226;-97.150;2023-08-20T13:09:24;29.30;99.90
17740;DHT22;8990;33.226;-97.150;2023-08-20T13:11:56;29.50;99.90
17740;DHT22;8990;33.226;-97.150;2023-08-20T13:14:24;29.60;99.90
17740;DHT22;8990;33.226;-97.150;2023-08-20T13:16:54;29.70;99.90
17740;DHT22;8990;33.226;-97.150;2023-08-20T13:19:23;29.90;99.90
17740;DHT22;8990;33.226;-97.150;2023-08-20T13:21:52;30.10;99.90
17740;DHT22;8990;33.226;-97.150;2023-08-20T13:24:21;30.20;99.90
17740;DHT22;8990;33.226;-97.150;2023-08-20T13:26:50;30.40;99.90
17740;DHT22;8990;33.226;-97.150;2023-08-20T13:29:21;30.60;99.90
17740;DHT22;8990;33.226;-97.150;2023-08-20T13:31:50;30.90;99.90
17740;DHT22;8990;33.226;-97.150;2023-08-20T13:34:18;31.10;99.90
17740;DHT22;8990;33.226;-97.150;2023-08-20T13:36:47;31.30;99.90
17740;DHT22;8990;33.226;-97.150;2023-08-20T13:39:16;31.60;99.90
17740;DHT22;8990;33.226;-97.150;2023-08-20T13:41:48;31.80;99.90
17740;DHT22;8990;33.226;-97.150;2023-08-20T13:44:19;32.00;99.90
17740;DHT22;8990;33.226;-97.150;2023-08-20T13:46:49;32.20;99.90
17740;DHT22;8990;33.226;-97.150;2023-08-20T13:49:18;32.30;99.90
17740;DHT22;8990;33.226;-97.150;2023-08-20T13:51:47;32.50;99.90
17740;DHT22;8990;33.226;-97.150;2023-08-20T13:54:16;32.70;99.90
17740;DHT22;8990;33.226;-97.150;2023-08-20T13:56:45;32.80;99.90
17740;DHT22;8990;33.226;-97.150;2023-08-20T13:59:14;33.00;99.90
17740;DHT22;8990;33.226;-97.150;2023-08-20T14:01:43;33.10;99.90
17740;DHT22;8990;33.226;-97.150;2023-08-20T14:04:13;33.20;99.90
17740;DHT22;8990;33.226;-97.150;2023-08-20T14:06:42;33.40;99.90
17740;DHT22;8990;33.226;-97.150;2023-08-20T14:09:11;33.60;99.90
17740;DHT22;8990;33.226;-97.150;2023-08-20T14:11:40;33.70;99.90
17740;DHT22;8990;33.226;-97.150;2023-08-20T14:14:09;34.00;99.90
17740;DHT22;8990;33.226;-97.150;2023-08-20T14:16:38;34.20;99.90
17740;DHT22;8990;33.226;-97.150;2023-08-20T14:19:07;34.30;99.90
17740;DHT22;8990;33.226;-97.150;2023-08-20T14:21:38;34.40;99.90
17740;DHT22;8990;33.226;-97.150;2023-08-20T14:24:07;34.50;99.90
17740;DHT22;8990;33.226;-97.150;2023-08-20T14:26:36;34.60;99.90
17740;DHT22;8990;33.226;-97.150;2023-08-20T14:29:05;34.60;99.90
17740;DHT22;8990;33.226;-97.150;2023-08-20T14:31:34;34.70;99.90
17740;DHT22;8990;33.226;-97.150;2023-08-20T14:34:03;34.80;99.90
17740;DHT22;8990;33.226;-97.150;2023-08-20T14:36:32;34.90;99.90
17740;DHT22;8990;33.226;-97.150;2023-08-20T14:39:05;35.00;99.90
17740;DHT22;8990;33.226;-97.150;2023-08-20T14:41:34;35.10;99.90
17740;DHT22;8990;33.226;-97.150;2023-08-20T14:44:04;35.20;99.90
17740;DHT22;8990;33.226;-97.150;2023-08-20T14:46:33;35.20;99.90
17740;DHT22;8990;33.226;-97.150;2023-08-20T14:49:02;35.30;99.90
17740;DHT22;8990;33.226;-97.150;2023-08-20T14:51:31;35.40;99.90
17740;DHT22;8990;33.226;-97.150;2023-08-20T14:54:03;35.50;99.90
17740;DHT22;8990;33.226;-97.150;2023-08-20T14:56:32;35.60;99.90
17740;DHT22;8990;33.226;-97.150;2023-08-20T14:59:00;35.70;99.90
17740;DHT22;8990;33.226;-97.150;2023-08-20T15:01:31;35.80;99.90
17740;DHT22;8990;33.226;-97.150;2023-08-20T15:03:59;36.00;99.90
17740;DHT22;8990;33.226;-97.150;2023-08-20T15:06:28;36.10;99.90
17740;DHT22;8990;33.226;-97.150;2023-08-20T15:08:57;36.10;99.90
17740;DHT22;8990;33.226;-97.150;2023-08-20T15:11:28;36.30;99.90
17740;DHT22;8990;33.226;-97.150;2023-08-20T15:13:57;36.40;99.90
17740;DHT22;8990;33.226;-97.150;2023-08-20T15:16:25;36.50;99.90
17740;DHT22;8990;33.226;-97.150;2023-08-20T15:18:54;36.50;99.90
17740;DHT22;8990;33.226;-97.150;2023-08-20T15:21:23;36.60;99.90
17740;DHT22;8990;33.226;-97.150;2023-08-20T15:23:52;36.70;99.90
17740;DHT22;8990;33.226;-97.150;2023-08-20T15:26:21;36.80;99.80
17740;DHT22;8990;33.226;-97.150;2023-08-20T15:28:51;36.90;99.90
17740;DHT22;8990;33.226;-97.150;2023-08-20T15:31:21;36.90;99.40
17740;DHT22;8990;33.226;-97.150;2023-08-20T15:33:50;37.10;99.60